createdAt,value
2018-09-03T00:01:54.532Z,100718.61
2018-09-03T00:04:24.045Z,100707.72
2018-09-03T00:06:54.745Z,100703.02
2018-09-03T00:09:24.349Z,100705.94
2018-09-03T00:11:54.000Z,100697.72
2018-09-03T00:14:23.066Z,100699.77
2018-09-03T00:16:52.052Z,100702.53
2018-09-03T00:19:21.423Z,100701.09
2018-09-03T00:21:50.446Z,100702.91
2018-09-03T00:24:19.680Z,100711.27
2018-09-03T00:26:54.361Z,100711.73
2018-09-03T00:29:23.422Z,100719.36
2018-09-03T00:31:57.714Z,100708.00
2018-09-03T00:34:31.791Z,100701.48
2018-09-03T00:41:20.567Z,100695.44
2018-09-03T00:43:54.958Z,100702.52
2018-09-03T00:46:29.126Z,100708.58
2018-09-03T00:48:59.311Z,100710.16
2018-09-03T00:51:28.374Z,100704.86
2018-09-03T00:53:59.477Z,100708.59
2018-09-03T00:56:29.346Z,100714.16
2018-09-03T00:58:58.375Z,100721.16
2018-09-03T01:01:27.351Z,100722.62
2018-09-03T01:04:00.397Z,100729.15
2018-09-03T01:06:32.218Z,100741.47
2018-09-03T01:09:01.226Z,100739.44
2018-09-03T01:11:32.555Z,100750.79
2018-09-03T01:14:02.176Z,100751.01
2018-09-03T01:16:31.222Z,100750.17
2018-09-03T01:19:00.676Z,100745.96
2018-09-03T01:21:29.752Z,100748.48
2018-09-03T01:23:58.796Z,100745.34
2018-09-03T01:26:39.262Z,100738.81
2018-09-03T01:29:08.214Z,100741.34
2018-09-03T01:31:37.206Z,100746.18
2018-09-03T01:34:06.175Z,100744.85
2018-09-03T01:36:35.206Z,100741.22
2018-09-03T01:39:05.101Z,100749.92
2018-09-03T01:41:34.397Z,100756.82
2018-09-03T01:44:04.075Z,100756.95
2018-09-03T01:46:34.768Z,100752.35
2018-09-03T01:49:05.174Z,100747.98
2018-09-03T01:51:34.237Z,100745.70
2018-09-03T01:54:03.866Z,100739.15
2018-09-03T01:56:33.376Z,100727.18
2018-09-03T01:59:02.404Z,100722.84
2018-09-03T02:01:31.417Z,100725.37
2018-09-03T02:04:00.447Z,100726.64
2018-09-03T02:06:29.395Z,100727.08
2018-09-03T02:11:38.406Z,100719.34
2018-09-03T02:14:25.181Z,100717.15
2018-09-03T02:16:54.251Z,100706.89
2018-09-03T02:19:24.766Z,100710.75
2018-09-03T02:21:53.833Z,100707.75
2018-09-03T02:24:22.866Z,100711.96
2018-09-03T02:26:52.561Z,100705.69
2018-09-03T02:29:22.947Z,100700.72
2018-09-03T02:31:51.977Z,100706.41
2018-09-03T02:34:24.147Z,100705.80
2018-09-03T02:36:57.269Z,100700.11
2018-09-03T02:39:26.393Z,100697.45
2018-09-03T02:41:55.428Z,100693.39
2018-09-03T02:44:32.294Z,100689.84
2018-09-03T02:47:02.330Z,100689.36
2018-09-03T02:49:31.381Z,100695.77
2018-09-03T02:52:00.449Z,100685.95
2018-09-03T02:54:29.440Z,100684.41
2018-09-03T02:57:07.259Z,100683.56
2018-09-03T03:02:11.511Z,100681.87
2018-09-03T03:04:44.889Z,100682.24
2018-09-03T03:07:13.883Z,100675.70
2018-09-03T03:09:42.889Z,100679.58
2018-09-03T03:12:23.462Z,100676.45
2018-09-03T03:14:54.796Z,100678.25
2018-09-03T03:17:23.838Z,100673.78
2018-09-03T03:19:53.285Z,100666.39
2018-09-03T03:22:22.334Z,100666.28
2018-09-03T03:24:51.292Z,100663.72
2018-09-03T03:27:27.268Z,100662.39
2018-09-03T03:29:56.219Z,100657.30
2018-09-03T03:32:25.217Z,100660.58
2018-09-03T03:34:54.792Z,100663.13
2018-09-03T03:37:23.802Z,100656.00
2018-09-03T03:39:53.544Z,100660.47
2018-09-03T03:42:23.002Z,100666.53
2018-09-03T03:44:53.657Z,100660.36
2018-09-03T03:47:22.759Z,100656.63
2018-09-03T03:49:56.139Z,100647.56
2018-09-03T03:52:25.125Z,100646.22
2018-09-03T03:54:54.207Z,100644.14
2018-09-03T03:57:23.340Z,100652.12
2018-09-03T03:59:52.769Z,100646.34
2018-09-03T04:02:25.777Z,100645.48
2018-09-03T04:04:54.874Z,100645.48
2018-09-03T04:07:24.378Z,100644.91
2018-09-03T04:09:53.312Z,100643.31
2018-09-03T04:12:22.814Z,100639.32
2018-09-03T04:14:51.938Z,100637.77
2018-09-03T04:17:20.995Z,100629.17
2018-09-03T04:19:55.821Z,100628.56
2018-09-03T04:22:25.768Z,100633.77
2018-09-03T04:24:54.780Z,100638.34
2018-09-03T04:27:25.002Z,100636.16
2018-09-03T04:29:54.186Z,100633.64
2018-09-03T04:32:25.191Z,100632.44
2018-09-03T04:34:54.617Z,100636.91
2018-09-03T04:37:23.705Z,100636.91
2018-09-03T04:39:52.778Z,100638.47
2018-09-03T04:42:22.204Z,100637.27
2018-09-03T04:44:51.210Z,100623.84
2018-09-03T04:47:20.234Z,100621.19
2018-09-03T04:49:49.462Z,100629.06
2018-09-03T04:52:19.306Z,100629.27
2018-09-03T04:54:48.721Z,100631.83
2018-09-03T04:57:17.879Z,100632.92
2018-09-03T04:59:47.059Z,100631.00
2018-09-03T05:02:17.083Z,100626.52
2018-09-03T05:04:48.279Z,100631.48
2018-09-03T05:07:17.607Z,100641.13
2018-09-03T05:09:49.029Z,100634.38
2018-09-03T05:12:20.801Z,100633.91
2018-09-03T05:14:50.048Z,100636.93
2018-09-03T05:17:25.177Z,100642.84
2018-09-03T05:19:54.373Z,100638.13
2018-09-03T05:22:23.712Z,100643.55
2018-09-03T05:24:54.537Z,100639.56
2018-09-03T05:27:23.531Z,100653.47
2018-09-03T05:29:52.853Z,100652.27
2018-09-03T05:35:55.355Z,100646.10
2018-09-03T05:38:24.794Z,100643.55
2018-09-03T05:40:54.386Z,100641.88
2018-09-03T05:43:23.837Z,100646.45
2018-09-03T05:45:53.054Z,100650.20
2018-09-03T05:48:28.934Z,100649.01
2018-09-03T05:50:58.129Z,100648.39
2018-09-03T05:53:27.369Z,100653.92
2018-09-03T05:55:57.047Z,100651.64
2018-09-03T05:58:29.720Z,100658.88
2018-09-03T06:00:59.921Z,100648.52
2018-09-03T06:03:30.953Z,100648.89
2018-09-03T06:06:00.100Z,100646.69
2018-09-03T06:08:29.512Z,100647.17
2018-09-03T06:11:05.160Z,100641.58
2018-09-03T06:13:34.217Z,100642.30
2018-09-03T06:16:04.349Z,100648.34
2018-09-03T06:18:34.181Z,100650.89
2018-09-03T06:21:03.597Z,100652.12
2018-09-03T06:23:33.226Z,100647.14
2018-09-03T06:26:05.591Z,100647.86
2018-09-03T06:31:10.759Z,100644.24
2018-09-03T06:33:39.935Z,100647.35
2018-09-03T06:36:09.273Z,100652.67
2018-09-03T06:38:38.668Z,100643.22
2018-09-03T06:41:07.830Z,100647.94
2018-09-03T06:43:37.376Z,100645.98
2018-09-03T06:46:06.674Z,100646.67
2018-09-03T06:48:36.057Z,100641.96
2018-09-03T06:51:11.692Z,100633.09
2018-09-03T06:53:41.083Z,100630.80
2018-09-03T06:56:12.987Z,100629.80
2018-09-03T06:58:42.469Z,100628.29
2018-09-03T07:01:12.149Z,100622.45
2018-09-03T07:03:52.345Z,100630.42
2018-09-03T07:06:21.779Z,100625.53
2018-09-03T07:08:50.783Z,100630.26
2018-09-03T07:11:26.500Z,100635.07
2018-09-03T07:13:56.045Z,100631.08
2018-09-03T07:16:25.677Z,100633.49
2018-09-03T07:18:54.995Z,100631.31
2018-09-03T07:21:24.844Z,100633.63
2018-09-03T07:23:54.547Z,100632.78
2018-09-03T07:26:23.875Z,100633.17
2018-09-03T07:28:53.567Z,100632.78
2018-09-03T07:31:22.648Z,100634.11
2018-09-03T07:34:02.476Z,100637.12
2018-09-03T07:36:31.994Z,100641.11
2018-09-03T07:39:06.975Z,100628.88
2018-09-03T07:41:36.339Z,100633.34
2018-09-03T07:44:06.876Z,100633.14
2018-09-03T07:46:36.407Z,100636.89
2018-09-03T07:49:05.624Z,100638.80
2018-09-03T07:51:35.210Z,100637.13
2018-09-03T07:54:05.254Z,100635.12
2018-09-03T07:56:35.972Z,100628.94
2018-09-03T07:59:10.106Z,100626.59
2018-09-03T08:01:40.469Z,100627.95
2018-09-03T08:04:09.899Z,100622.53
2018-09-03T08:06:39.274Z,100622.36
2018-09-03T08:09:10.110Z,100617.81
2018-09-03T08:11:39.427Z,100622.38
2018-09-03T08:14:15.199Z,100629.83
2018-09-03T08:16:44.458Z,100631.17
2018-09-03T08:19:19.804Z,100632.17
2018-09-03T08:21:49.108Z,100628.50
2018-09-03T08:24:21.324Z,100632.44
2018-09-03T08:26:51.899Z,100621.28
2018-09-03T08:29:21.156Z,100617.98
2018-09-03T08:31:50.793Z,100610.76
2018-09-03T08:34:20.468Z,100615.91
2018-09-03T08:36:49.892Z,100617.75
2018-09-03T08:39:20.143Z,100611.41
2018-09-03T08:41:54.657Z,100618.03
2018-09-03T08:44:25.174Z,100616.27
2018-09-03T08:49:46.240Z,100613.19
2018-09-03T08:52:17.454Z,100614.47
2018-09-03T08:54:47.157Z,100611.62
2018-09-03T08:57:22.153Z,100611.56
2018-09-03T08:59:52.957Z,100603.60
2018-09-03T09:02:22.176Z,100602.87
2018-09-03T09:04:51.312Z,100603.50
2018-09-03T09:07:20.881Z,100604.47
2018-09-03T09:09:50.819Z,100608.90
2018-09-03T09:12:20.017Z,100604.53
2018-09-03T09:14:50.402Z,100593.41
2018-09-03T09:17:19.758Z,100593.52
2018-09-03T09:19:49.013Z,100592.23
2018-09-03T09:22:19.294Z,100589.30
2018-09-03T09:24:48.518Z,100588.75
2018-09-03T09:27:17.651Z,100581.67
2018-09-03T09:29:47.797Z,100575.48
2018-09-03T09:32:17.157Z,100575.19
2018-09-03T09:34:51.289Z,100579.13
2018-09-03T09:37:23.073Z,100583.50
2018-09-03T09:39:52.541Z,100576.53
2018-09-03T09:42:21.878Z,100579.16
2018-09-03T09:44:52.477Z,100571.84
2018-09-03T09:47:21.798Z,100577.42
2018-09-03T09:49:51.365Z,100581.23
2018-09-03T09:52:24.251Z,100575.19
2018-09-03T09:54:53.620Z,100585.88
2018-09-03T09:57:22.973Z,100583.64
2018-09-03T09:59:55.215Z,100581.20
2018-09-03T10:02:24.777Z,100578.27
2018-09-03T10:04:54.125Z,100572.50
2018-09-03T10:07:25.576Z,100580.90
2018-09-03T10:09:56.893Z,100576.14
2018-09-03T10:12:33.068Z,100572.63
2018-09-03T10:15:03.605Z,100576.39
2018-09-03T10:17:38.259Z,100579.82
2018-09-03T10:20:07.816Z,100579.45
2018-09-03T10:22:37.373Z,100577.64
2018-09-03T10:25:08.444Z,100579.88
2018-09-03T10:27:37.949Z,100569.66
2018-09-03T10:30:08.615Z,100571.77
2018-09-03T10:32:38.003Z,100572.91
2018-09-03T10:35:07.387Z,100562.78
2018-09-03T10:37:40.155Z,100557.95
2018-09-03T10:40:09.569Z,100557.50
2018-09-03T10:42:39.012Z,100558.02
2018-09-03T10:45:13.642Z,100556.73
2018-09-03T10:47:42.709Z,100558.78
2018-09-03T10:50:12.032Z,100559.44
2018-09-03T10:52:47.846Z,100548.24
2018-09-03T10:55:17.060Z,100550.09
2018-09-03T10:57:46.265Z,100553.48
2018-09-03T11:00:17.940Z,100551.06
2018-09-03T11:02:47.099Z,100545.91
2018-09-03T11:05:16.269Z,100548.07
2018-09-03T11:07:46.872Z,100544.34
2018-09-03T11:10:16.175Z,100547.45
2018-09-03T11:12:45.424Z,100550.90
2018-09-03T11:15:17.897Z,100550.75
2018-09-03T11:17:47.247Z,100547.23
2018-09-03T11:20:22.608Z,100544.88
2018-09-03T11:22:51.736Z,100544.03
2018-09-03T11:25:22.893Z,100542.39
2018-09-03T11:27:54.386Z,100537.02
2018-09-03T11:30:24.037Z,100535.98
2018-09-03T11:32:56.120Z,100539.02
2018-09-03T11:35:26.754Z,100533.62
2018-09-03T11:37:57.190Z,100530.90
2018-09-03T11:40:34.888Z,100524.61
2018-09-03T11:43:04.466Z,100531.77
2018-09-03T11:45:33.974Z,100521.66
2018-09-03T11:48:04.232Z,100522.94
2018-09-03T11:50:36.465Z,100531.67
2018-09-03T11:53:08.027Z,100528.63
2018-09-03T11:55:43.061Z,100526.79
2018-09-03T11:58:18.706Z,100519.56
2018-09-03T12:00:48.243Z,100521.82
2018-09-03T12:03:17.508Z,100517.44
2018-09-03T12:05:49.305Z,100523.52
2018-09-03T12:08:19.495Z,100521.41
2018-09-03T12:10:48.591Z,100523.52
2018-09-03T12:13:18.401Z,100513.06
2018-09-03T12:15:52.609Z,100520.17
2018-09-03T12:18:21.939Z,100518.23
2018-09-03T12:21:02.860Z,100512.98
2018-09-03T12:23:32.182Z,100511.91
2018-09-03T12:26:02.080Z,100516.53
2018-09-03T12:28:32.075Z,100510.73
2018-09-03T12:31:07.457Z,100513.07
2018-09-03T12:33:36.717Z,100516.36
2018-09-03T12:36:07.299Z,100502.17
2018-09-03T12:38:38.784Z,100510.43
2018-09-03T12:41:08.070Z,100506.69
2018-09-03T12:43:44.352Z,100507.74
2018-09-03T12:46:13.683Z,100501.86
2018-09-03T12:48:43.003Z,100494.01
2018-09-03T12:51:12.574Z,100490.29
2018-09-03T12:53:41.912Z,100487.92
2018-09-03T12:56:11.046Z,100487.48
2018-09-03T12:58:41.492Z,100487.29
2018-09-03T13:01:10.694Z,100482.94
2018-09-03T13:03:39.935Z,100484.77
2018-09-03T13:06:21.102Z,100488.63
2018-09-03T13:08:50.476Z,100488.48
2018-09-03T13:11:21.603Z,100482.59
2018-09-03T13:13:51.671Z,100482.92
2018-09-03T13:16:20.859Z,100485.62
2018-09-03T13:18:52.224Z,100487.80
2018-09-03T13:21:21.408Z,100493.02
2018-09-03T13:23:51.963Z,100493.34
2018-09-03T13:26:23.364Z,100489.67
2018-09-03T13:28:52.585Z,100491.00
2018-09-03T13:31:21.809Z,100485.26
2018-09-03T13:33:51.561Z,100485.40
2018-09-03T13:36:24.513Z,100481.54
2018-09-03T13:38:54.004Z,100471.23
2018-09-03T13:41:23.913Z,100463.77
2018-09-03T13:43:53.144Z,100461.15
2018-09-03T13:46:22.412Z,100451.19
2018-09-03T13:48:52.118Z,100448.23
2018-09-03T13:51:21.420Z,100450.69
2018-09-03T13:53:50.649Z,100450.64
2018-09-03T13:56:20.886Z,100452.06
2018-09-03T13:58:50.389Z,100450.60
2018-09-03T14:01:19.632Z,100445.25
2018-09-03T14:03:50.391Z,100450.28
2018-09-03T14:06:20.203Z,100448.47
2018-09-03T14:11:24.319Z,100448.45
2018-09-03T14:13:53.765Z,100454.20
2018-09-03T14:16:24.554Z,100452.93
2018-09-03T14:18:54.819Z,100455.46
2018-09-03T14:21:24.227Z,100451.28
2018-09-03T14:23:53.879Z,100453.67
2018-09-03T14:26:23.509Z,100454.89
2018-09-03T14:28:53.822Z,100448.53
2018-09-03T14:31:24.825Z,100442.81
2018-09-03T14:33:54.296Z,100442.83
2018-09-03T14:36:24.252Z,100447.08
2018-09-03T14:38:54.011Z,100444.23
2018-09-03T14:41:23.606Z,100445.23
2018-09-03T14:43:52.850Z,100440.41
2018-09-03T14:46:24.820Z,100439.88
2018-09-03T14:48:53.993Z,100438.03
2018-09-03T14:51:23.370Z,100443.73
2018-09-03T14:53:53.107Z,100440.41
2018-09-03T14:56:23.258Z,100443.95
2018-09-03T14:58:52.461Z,100441.77
2018-09-03T15:01:23.399Z,100444.63
2018-09-03T15:03:52.922Z,100449.83
2018-09-03T15:06:22.363Z,100451.67
2018-09-03T15:08:52.071Z,100451.68
2018-09-03T15:11:21.367Z,100440.61
2018-09-03T15:13:58.432Z,100444.95
2018-09-03T15:16:31.014Z,100440.61
2018-09-03T15:19:01.658Z,100430.53
2018-09-03T15:21:30.766Z,100428.17
2018-09-03T15:24:03.868Z,100420.10
2018-09-03T15:26:33.845Z,100418.23
2018-09-03T15:29:17.990Z,100421.55
2018-09-03T15:31:58.855Z,100424.31
2018-09-03T15:34:27.960Z,100412.48
2018-09-03T15:37:01.553Z,100411.11
2018-09-03T15:39:30.876Z,100409.77
2018-09-03T15:42:00.293Z,100412.98
2018-09-03T15:44:32.691Z,100411.45
2018-09-03T15:47:02.476Z,100414.49
2018-09-03T15:49:31.661Z,100417.63
2018-09-03T15:52:04.901Z,100411.95
2018-09-03T15:54:39.849Z,100418.31
2018-09-03T15:57:09.173Z,100420.44
2018-09-03T15:59:38.271Z,100416.67
2018-09-03T16:02:07.553Z,100423.37
2018-09-03T16:04:42.849Z,100420.45
2018-09-03T16:07:12.205Z,100423.14
2018-09-03T16:09:41.820Z,100426.55
2018-09-03T16:12:11.317Z,100422.63
2018-09-03T16:14:40.431Z,100426.05
2018-09-03T16:17:09.430Z,100425.04
2018-09-03T16:19:38.969Z,100426.83
2018-09-03T16:22:08.483Z,100430.45
2018-09-03T16:24:37.816Z,100431.53
2018-09-03T16:27:08.562Z,100433.16
2018-09-03T16:29:37.776Z,100427.98
2018-09-03T16:32:07.062Z,100428.38
2018-09-03T16:34:38.610Z,100430.45
2018-09-03T16:37:08.329Z,100429.44
2018-09-03T16:39:37.388Z,100430.48
2018-09-03T16:42:06.872Z,100429.51
2018-09-03T16:44:36.046Z,100433.87
2018-09-03T16:47:05.907Z,100434.22
2018-09-03T16:49:45.888Z,100432.39
2018-09-03T16:52:15.526Z,100433.25
2018-09-03T16:54:44.775Z,100433.94
2018-09-03T16:57:14.135Z,100434.94
2018-09-03T16:59:47.386Z,100431.55
2018-09-03T17:02:19.196Z,100431.88
2018-09-03T17:04:48.318Z,100430.53
2018-09-03T17:07:22.742Z,100426.87
2018-09-03T17:09:51.970Z,100430.90
2018-09-03T17:12:24.657Z,100427.86
2018-09-03T17:14:57.123Z,100426.34
2018-09-03T17:17:26.367Z,100429.87
2018-09-03T17:19:58.853Z,100428.53
2018-09-03T17:22:28.443Z,100432.56
2018-09-03T17:24:57.815Z,100435.07
2018-09-03T17:27:27.130Z,100434.58
2018-09-03T17:29:58.089Z,100433.55
2018-09-03T17:32:27.221Z,100431.22
2018-09-03T17:34:56.535Z,100436.91
2018-09-03T17:37:27.245Z,100437.75
2018-09-03T17:40:02.751Z,100436.73
2018-09-03T17:42:32.012Z,100439.58
2018-09-03T17:45:05.441Z,100442.92
2018-09-03T17:47:34.993Z,100443.91
2018-09-03T17:50:17.548Z,100446.27
2018-09-03T17:52:55.152Z,100442.25
2018-09-03T17:55:25.515Z,100449.23
2018-09-03T17:57:55.246Z,100452.94
2018-09-03T18:00:26.088Z,100454.23
2018-09-03T18:02:55.405Z,100450.87
2018-09-03T18:05:24.925Z,100450.05
2018-09-03T18:07:54.531Z,100455.91
2018-09-03T18:10:24.380Z,100460.42
2018-09-03T18:12:57.318Z,100453.54
2018-09-03T18:15:27.517Z,100454.01
2018-09-03T18:18:05.088Z,100454.35
2018-09-03T18:20:39.613Z,100454.00
2018-09-03T18:23:09.140Z,100454.34
2018-09-03T18:25:38.360Z,100465.73
2018-09-03T18:28:09.662Z,100455.14
2018-09-03T18:30:39.283Z,100455.13
2018-09-03T18:33:08.613Z,100456.64
2018-09-03T18:35:37.938Z,100457.80
2018-09-03T18:38:07.512Z,100463.66
2018-09-03T18:40:36.543Z,100462.47
2018-09-03T18:43:06.595Z,100459.97
2018-09-03T18:45:36.218Z,100463.97
2018-09-03T18:48:10.171Z,100469.50
2018-09-03T18:50:39.619Z,100462.26
2018-09-03T18:53:08.985Z,100465.30
2018-09-03T18:55:38.380Z,100468.80
2018-09-03T18:58:07.870Z,100470.45
2018-09-03T19:00:38.098Z,100472.14
2018-09-03T19:03:12.223Z,100471.30
2018-09-03T19:05:41.921Z,100476.98
2018-09-03T19:08:16.601Z,100474.96
2018-09-03T19:10:45.971Z,100483.36
2018-09-03T19:13:19.281Z,100480.19
2018-09-03T19:15:49.196Z,100487.02
2018-09-03T19:18:19.391Z,100486.47
2018-09-03T19:20:48.927Z,100485.84
2018-09-03T19:23:18.274Z,100480.44
2018-09-03T19:25:53.914Z,100485.98
2018-09-03T19:28:24.371Z,100481.28
2018-09-03T19:30:59.702Z,100478.25
2018-09-03T19:33:29.802Z,100479.75
2018-09-03T19:35:59.474Z,100481.39
2018-09-03T19:38:28.732Z,100483.58
2018-09-03T19:41:01.547Z,100486.08
2018-09-03T19:43:31.194Z,100482.71
2018-09-03T19:46:00.409Z,100486.05
2018-09-03T19:48:30.422Z,100481.19
2018-09-03T19:50:59.507Z,100487.86
2018-09-03T19:53:28.926Z,100481.69
2018-09-03T19:55:58.414Z,100481.69
2018-09-03T19:58:27.538Z,100481.69
2018-09-03T20:00:56.650Z,100481.00
2018-09-03T20:03:26.198Z,100492.19
2018-09-03T20:05:55.566Z,100488.83
2018-09-03T20:08:24.842Z,100492.16
2018-09-03T20:10:54.510Z,100488.44
2018-09-03T20:13:24.520Z,100483.25
2018-09-03T20:15:54.474Z,100487.56
2018-09-03T20:18:32.531Z,100489.07
2018-09-03T20:21:01.763Z,100488.88
2018-09-03T20:23:34.336Z,100488.55
2018-09-03T20:26:04.882Z,100491.36
2018-09-03T20:28:40.249Z,100492.19
2018-09-03T20:31:09.408Z,100485.66
2018-09-03T20:33:39.802Z,100486.11
2018-09-03T20:36:08.900Z,100487.42
2018-09-03T20:38:38.188Z,100490.03
2018-09-03T20:41:07.624Z,100483.83
2018-09-03T20:43:36.797Z,100492.06
2018-09-03T20:46:07.180Z,100484.84
2018-09-03T20:48:42.584Z,100482.00
2018-09-03T20:51:11.859Z,100486.31
2018-09-03T20:53:51.420Z,100488.17
2018-09-03T20:56:20.719Z,100487.33
2018-09-03T20:58:57.056Z,100484.91
2018-09-03T21:01:26.367Z,100482.00
2018-09-03T21:04:03.852Z,100483.34
2018-09-03T21:06:33.280Z,100481.03
2018-09-03T21:09:07.534Z,100485.04
2018-09-03T21:11:36.758Z,100483.77
2018-09-03T21:14:08.352Z,100482.13
2018-09-03T21:16:39.699Z,100485.42
2018-09-03T21:19:09.497Z,100488.75
2018-09-03T21:21:40.024Z,100496.45
2018-09-03T21:24:12.700Z,100499.17
2018-09-03T21:26:41.939Z,100502.70
2018-09-03T21:29:11.538Z,100506.38
2018-09-03T21:31:40.663Z,100504.20
2018-09-03T21:34:09.817Z,100489.97
2018-09-03T21:36:42.828Z,100492.80
2018-09-03T21:39:11.922Z,100496.29
2018-09-03T21:41:41.492Z,100497.95
2018-09-03T21:44:11.030Z,100485.91
2018-09-03T21:46:40.292Z,100494.75
2018-09-03T21:49:09.536Z,100493.91
2018-09-03T21:51:38.958Z,100492.08
2018-09-03T21:54:08.578Z,100490.25
2018-09-03T21:56:37.841Z,100496.09
2018-09-03T21:59:10.508Z,100488.06
2018-09-03T22:01:44.070Z,100489.24
2018-09-03T22:04:13.290Z,100488.06
2018-09-03T22:06:42.550Z,100484.70
2018-09-03T22:09:11.664Z,100496.91
2018-09-03T22:11:41.218Z,100499.42
2018-09-03T22:14:12.966Z,100491.84
2018-09-03T22:16:42.192Z,100490.14
2018-09-03T22:19:11.702Z,100484.30
2018-09-03T22:21:42.163Z,100485.31
2018-09-03T22:24:11.363Z,100482.08
2018-09-03T22:26:43.500Z,100482.08
2018-09-03T22:29:12.664Z,100478.88
2018-09-03T22:31:41.860Z,100488.05
2018-09-03T22:34:13.700Z,100483.66
2018-09-03T22:36:43.594Z,100484.48
2018-09-03T22:39:12.794Z,100481.11
2018-09-03T22:41:42.371Z,100485.61
2018-09-03T22:44:12.354Z,100480.22
2018-09-03T22:46:44.963Z,100481.68
2018-09-03T22:49:14.486Z,100480.83
2018-09-03T22:51:43.728Z,100483.17
2018-09-03T22:54:12.787Z,100479.12
2018-09-03T22:56:42.214Z,100478.07
2018-09-03T22:59:11.688Z,100483.58
2018-09-03T23:01:40.883Z,100484.38
2018-09-03T23:04:10.234Z,100477.05
2018-09-03T23:06:39.407Z,100477.34
2018-09-03T23:09:12.344Z,100475.28
2018-09-03T23:11:41.548Z,100475.92
2018-09-03T23:14:10.544Z,100475.39
2018-09-03T23:16:42.735Z,100477.86
2018-09-03T23:19:11.786Z,100474.86
2018-09-03T23:21:40.841Z,100482.52
2018-09-03T23:24:09.909Z,100478.30
2018-09-03T23:26:38.994Z,100475.58
2018-09-03T23:29:09.394Z,100476.23
2018-09-03T23:31:39.122Z,100474.56
2018-09-03T23:34:08.238Z,100467.19
2018-09-03T23:36:38.568Z,100468.16
2018-09-03T23:39:07.842Z,100475.00
2018-09-03T23:41:37.062Z,100462.92
2018-09-03T23:44:06.811Z,100457.70
2018-09-03T23:46:35.976Z,100457.37
2018-09-03T23:49:05.081Z,100451.66
2018-09-03T23:51:34.121Z,100453.00
2018-09-03T23:54:05.206Z,100455.34
2018-09-03T23:56:34.751Z,100461.66
2018-09-03T23:59:03.855Z,100455.30
